createdAt,value
2018-07-25T00:01:53.868Z,24.20
2018-07-25T00:04:22.446Z,24.20
2018-07-25T00:09:19.040Z,24.20
2018-07-25T00:11:47.485Z,24.20
2018-07-25T00:14:16.000Z,24.20
2018-07-25T00:16:44.553Z,24.20
2018-07-25T00:21:41.410Z,24.20
2018-07-25T00:24:09.838Z,24.20
2018-07-25T00:26:38.310Z,24.20
2018-07-25T00:29:06.769Z,24.20
2018-07-25T00:31:35.210Z,24.20
2018-07-25T00:34:03.716Z,24.20
2018-07-25T00:36:32.201Z,24.20
2018-07-25T00:39:00.800Z,24.20
2018-07-25T00:41:29.351Z,24.20
2018-07-25T00:43:57.782Z,24.20
2018-07-25T00:46:26.256Z,24.10
2018-07-25T00:48:54.728Z,24.10
2018-07-25T00:53:51.464Z,24.10
2018-07-25T00:56:19.890Z,24.10
2018-07-25T00:58:48.332Z,24.00
2018-07-25T01:01:17.136Z,24.00
2018-07-25T01:03:45.592Z,23.90
2018-07-25T01:08:42.262Z,23.70
2018-07-25T01:11:10.744Z,23.70
2018-07-25T01:13:39.224Z,23.60
2018-07-25T01:16:08.050Z,23.50
2018-07-25T01:18:36.536Z,23.50
2018-07-25T01:21:05.018Z,23.50
2018-07-25T01:23:33.559Z,23.40
2018-07-25T01:26:02.175Z,23.40
2018-07-25T01:28:30.612Z,23.40
2018-07-25T01:30:59.042Z,23.40
2018-07-25T01:33:27.488Z,23.30
2018-07-25T01:38:24.670Z,23.30
2018-07-25T01:40:53.294Z,23.10
2018-07-25T01:43:21.852Z,23.10
2018-07-25T01:45:50.324Z,23.00
2018-07-25T01:48:18.785Z,22.90
2018-07-25T01:50:47.333Z,22.90
2018-07-25T01:53:15.888Z,23.00
2018-07-25T01:55:44.452Z,23.10
2018-07-25T01:58:13.175Z,23.10
2018-07-25T02:00:41.911Z,23.00
2018-07-25T02:03:10.375Z,23.00
2018-07-25T02:05:38.829Z,23.10
2018-07-25T02:08:07.367Z,23.10
2018-07-25T02:10:38.273Z,23.10
2018-07-25T02:13:06.912Z,23.20
2018-07-25T02:15:35.411Z,23.30
2018-07-25T02:18:03.857Z,23.20
2018-07-25T02:20:32.296Z,23.20
2018-07-25T02:23:00.762Z,23.20
2018-07-25T02:25:29.213Z,23.20
2018-07-25T02:27:57.701Z,23.20
2018-07-25T02:32:54.593Z,23.20
2018-07-25T02:35:23.055Z,23.20
2018-07-25T02:37:51.598Z,23.20
2018-07-25T02:40:20.142Z,23.20
2018-07-25T02:42:49.002Z,23.20
2018-07-25T02:45:17.470Z,23.20
2018-07-25T02:50:14.070Z,23.20
2018-07-25T02:52:42.532Z,23.10
2018-07-25T02:55:10.997Z,23.10
2018-07-25T02:57:39.579Z,23.10
2018-07-25T03:02:36.475Z,23.10
2018-07-25T03:05:05.013Z,23.00
2018-07-25T03:07:33.526Z,23.00
2018-07-25T03:10:02.540Z,23.00
2018-07-25T03:12:31.089Z,23.00
2018-07-25T03:17:27.845Z,23.00
2018-07-25T03:19:56.417Z,22.90
2018-07-25T03:22:24.994Z,22.80
2018-07-25T03:24:53.438Z,22.80
2018-07-25T03:27:21.940Z,22.80
2018-07-25T03:29:50.390Z,22.80
2018-07-25T03:32:18.814Z,22.70
2018-07-25T03:34:47.313Z,22.70
2018-07-25T03:39:43.995Z,22.60
2018-07-25T03:42:12.569Z,22.50
2018-07-25T03:44:41.137Z,22.50
2018-07-25T03:47:09.637Z,22.30
2018-07-25T03:49:38.093Z,22.20
2018-07-25T03:52:06.558Z,22.10
2018-07-25T03:54:35.015Z,22.10
2018-07-25T03:57:03.561Z,22.00
2018-07-25T03:59:32.009Z,21.90
2018-07-25T04:02:00.503Z,21.90
2018-07-25T04:04:28.979Z,21.80
2018-07-25T04:06:57.428Z,21.80
2018-07-25T04:09:25.982Z,21.70
2018-07-25T04:14:22.628Z,21.70
2018-07-25T04:19:19.377Z,21.60
2018-07-25T04:24:15.965Z,21.70
2018-07-25T04:26:44.438Z,21.70
2018-07-25T04:29:12.942Z,21.70
2018-07-25T04:31:41.410Z,21.70
2018-07-25T04:34:09.868Z,21.70
2018-07-25T04:36:38.457Z,21.70
2018-07-25T04:39:09.537Z,21.70
2018-07-25T04:41:38.399Z,21.60
2018-07-25T04:44:06.997Z,21.60
2018-07-25T04:46:35.595Z,21.60
2018-07-25T04:49:04.154Z,21.60
2018-07-25T04:51:32.639Z,21.60
2018-07-25T04:54:01.095Z,21.60
2018-07-25T04:58:57.765Z,21.50
2018-07-25T05:01:26.253Z,21.50
2018-07-25T05:03:54.717Z,21.50
2018-07-25T05:06:23.161Z,21.50
2018-07-25T05:08:51.731Z,21.50
2018-07-25T05:11:20.173Z,21.50
2018-07-25T05:13:48.622Z,21.60
2018-07-25T05:16:17.134Z,21.60
2018-07-25T05:18:45.757Z,21.60
2018-07-25T05:21:14.339Z,21.60
2018-07-25T05:23:42.809Z,21.60
2018-07-25T05:28:39.533Z,21.70
2018-07-25T05:31:08.029Z,21.80
2018-07-25T05:33:36.589Z,21.70
2018-07-25T05:36:05.134Z,21.80
2018-07-25T05:38:33.641Z,21.80
2018-07-25T05:41:10.740Z,21.90
2018-07-25T05:43:39.509Z,21.90
2018-07-25T05:46:08.252Z,21.90
2018-07-25T05:48:36.683Z,21.90
2018-07-25T05:53:34.430Z,21.90
2018-07-25T05:56:03.147Z,22.00
2018-07-25T05:58:31.831Z,22.00
2018-07-25T06:01:00.304Z,22.00
2018-07-25T06:03:28.816Z,22.00
2018-07-25T06:05:58.136Z,22.10
2018-07-25T06:08:26.584Z,22.10
2018-07-25T06:10:54.996Z,22.20
2018-07-25T06:13:23.484Z,22.20
2018-07-25T06:18:20.281Z,22.20
2018-07-25T06:20:48.789Z,22.20
2018-07-25T06:23:17.269Z,22.20
2018-07-25T06:25:45.818Z,22.20
2018-07-25T06:30:42.587Z,22.40
2018-07-25T06:33:11.055Z,22.50
2018-07-25T06:35:39.551Z,22.60
2018-07-25T06:38:07.995Z,22.70
2018-07-25T06:40:36.483Z,22.90
2018-07-25T06:43:05.149Z,23.10
2018-07-25T06:45:33.726Z,23.10
2018-07-25T06:48:02.243Z,23.20
2018-07-25T06:50:30.688Z,23.20
2018-07-25T06:53:00.006Z,23.30
2018-07-25T06:55:28.448Z,23.30
2018-07-25T06:57:56.943Z,23.40
2018-07-25T07:00:25.487Z,23.40
2018-07-25T07:05:24.115Z,23.60
2018-07-25T07:07:52.693Z,23.60
2018-07-25T07:10:21.126Z,23.60
2018-07-25T07:12:49.562Z,23.70
2018-07-25T07:15:18.064Z,23.80
2018-07-25T07:17:46.599Z,24.00
2018-07-25T07:20:15.102Z,24.10
2018-07-25T07:22:43.657Z,24.20
2018-07-25T07:27:40.746Z,24.40
2018-07-25T07:30:09.311Z,24.60
2018-07-25T07:32:37.813Z,24.70
2018-07-25T07:35:06.367Z,24.80
2018-07-25T07:37:34.895Z,24.80
2018-07-25T07:42:31.665Z,24.90
2018-07-25T07:45:00.324Z,25.00
2018-07-25T07:47:28.835Z,25.20
2018-07-25T07:49:57.289Z,25.30
2018-07-25T07:52:25.839Z,25.50
2018-07-25T07:54:54.454Z,25.60
2018-07-25T07:59:51.234Z,25.80
2018-07-25T08:02:19.758Z,25.90
2018-07-25T08:04:48.350Z,26.00
2018-07-25T08:07:16.830Z,26.20
2018-07-25T08:09:45.459Z,26.50
2018-07-25T08:12:13.892Z,26.60
2018-07-25T08:14:42.406Z,26.70
2018-07-25T08:17:10.846Z,26.70
2018-07-25T08:19:39.312Z,26.90
2018-07-25T08:22:07.784Z,27.00
2018-07-25T08:24:36.332Z,27.20
2018-07-25T08:27:04.869Z,27.30
2018-07-25T08:29:33.323Z,27.30
2018-07-25T08:32:01.824Z,27.40
2018-07-25T08:34:30.382Z,27.60
2018-07-25T08:36:58.912Z,27.70
2018-07-25T08:39:27.369Z,27.90
2018-07-25T08:41:55.940Z,28.00
2018-07-25T08:44:24.416Z,28.10
2018-07-25T08:46:52.871Z,28.30
2018-07-25T08:49:21.406Z,28.30
2018-07-25T08:51:49.838Z,28.50
2018-07-25T08:54:18.299Z,28.50
2018-07-25T08:56:46.870Z,28.70
2018-07-25T08:59:15.455Z,29.00
2018-07-25T09:01:44.114Z,29.10
2018-07-25T09:04:12.563Z,29.20
2018-07-25T09:09:10.594Z,29.10
2018-07-25T09:11:39.048Z,29.30
2018-07-25T09:14:07.644Z,29.40
2018-07-25T09:16:36.192Z,29.50
2018-07-25T09:21:33.399Z,29.70
2018-07-25T09:24:01.833Z,29.70
2018-07-25T09:26:30.333Z,29.90
2018-07-25T09:28:58.993Z,30.00
2018-07-25T09:31:27.742Z,30.20
2018-07-25T09:33:56.247Z,30.50
2018-07-25T09:36:24.839Z,30.50
2018-07-25T09:38:53.451Z,30.80
2018-07-25T09:41:21.955Z,30.60
2018-07-25T09:43:50.559Z,30.60
2018-07-25T09:46:19.199Z,30.70
2018-07-25T09:51:15.865Z,30.80
2018-07-25T09:53:44.474Z,31.00
2018-07-25T09:56:12.956Z,31.00
2018-07-25T09:58:41.423Z,31.10
2018-07-25T10:01:10.027Z,30.90
2018-07-25T10:03:38.621Z,30.60
2018-07-25T10:06:07.157Z,30.70
2018-07-25T10:08:35.639Z,30.80
2018-07-25T10:11:04.162Z,31.10
2018-07-25T10:13:32.729Z,31.10
2018-07-25T10:16:01.236Z,31.20
2018-07-25T10:18:29.934Z,31.30
2018-07-25T10:20:58.435Z,31.30
2018-07-25T10:23:27.009Z,31.10
2018-07-25T10:25:55.657Z,31.00
2018-07-25T10:28:24.250Z,31.10
2018-07-25T10:30:52.842Z,31.30
2018-07-25T10:33:21.467Z,31.40
2018-07-25T10:35:50.261Z,31.60
2018-07-25T10:38:18.914Z,31.20
2018-07-25T10:40:47.403Z,31.10
2018-07-25T10:43:15.935Z,31.20
2018-07-25T10:45:44.553Z,31.50
2018-07-25T10:48:13.143Z,31.60
2018-07-25T10:50:41.602Z,31.50
2018-07-25T10:53:10.097Z,31.40
2018-07-25T10:55:38.701Z,31.70
2018-07-25T10:58:07.331Z,31.80
2018-07-25T11:00:35.833Z,32.10
2018-07-25T11:03:04.337Z,32.10
2018-07-25T11:05:32.896Z,32.00
2018-07-25T11:08:01.473Z,32.10
2018-07-25T11:10:30.079Z,32.10
2018-07-25T11:12:58.658Z,32.20
2018-07-25T11:15:27.193Z,32.30
2018-07-25T11:17:55.729Z,32.30
2018-07-25T11:20:24.183Z,32.10
2018-07-25T11:22:52.951Z,32.00
2018-07-25T11:25:21.503Z,32.20
2018-07-25T11:27:49.969Z,32.50
2018-07-25T11:30:18.518Z,32.70
2018-07-25T11:32:47.067Z,32.90
2018-07-25T11:35:15.577Z,33.20
2018-07-25T11:37:43.995Z,33.30
2018-07-25T11:42:40.731Z,33.00
2018-07-25T11:45:09.251Z,33.20
2018-07-25T11:47:37.724Z,33.20
2018-07-25T11:50:06.338Z,33.10
2018-07-25T11:52:34.838Z,33.00
2018-07-25T11:55:03.706Z,32.90
2018-07-25T11:57:32.212Z,32.90
2018-07-25T12:00:00.734Z,32.80
2018-07-25T12:02:29.281Z,33.10
2018-07-25T12:04:57.741Z,33.30
2018-07-25T12:07:26.363Z,33.10
2018-07-25T12:09:56.241Z,33.00
2018-07-25T12:12:25.138Z,33.10
2018-07-25T12:14:53.770Z,33.20
2018-07-25T12:17:22.280Z,33.10
2018-07-25T12:19:50.796Z,33.20
2018-07-25T12:22:19.243Z,33.00
2018-07-25T12:24:47.845Z,33.00
2018-07-25T12:27:16.397Z,33.40
2018-07-25T12:29:44.879Z,33.50
2018-07-25T12:32:13.424Z,33.90
2018-07-25T12:34:41.963Z,34.10
2018-07-25T12:37:10.419Z,34.10
2018-07-25T12:39:39.028Z,34.00
2018-07-25T12:42:08.226Z,33.90
2018-07-25T12:44:36.729Z,33.90
2018-07-25T12:47:05.481Z,34.10
2018-07-25T12:49:34.306Z,34.10
2018-07-25T12:52:02.958Z,34.00
2018-07-25T12:54:31.558Z,33.90
2018-07-25T12:57:00.075Z,33.90
2018-07-25T12:59:28.588Z,34.00
2018-07-25T13:01:57.179Z,34.10
2018-07-25T13:04:25.581Z,34.30
2018-07-25T13:06:54.106Z,34.60
2018-07-25T13:09:22.652Z,34.50
2018-07-25T13:11:51.223Z,34.00
2018-07-25T13:14:19.668Z,34.10
2018-07-25T13:16:48.209Z,34.60
2018-07-25T13:19:16.811Z,34.80
2018-07-25T13:21:45.341Z,35.20
2018-07-25T13:26:42.333Z,34.70
2018-07-25T13:29:10.814Z,34.70
2018-07-25T13:31:39.428Z,34.70
2018-07-25T13:34:08.207Z,34.40
2018-07-25T13:36:37.495Z,34.50
2018-07-25T13:39:07.641Z,34.70
2018-07-25T13:41:36.333Z,34.60
2018-07-25T13:44:05.421Z,34.70
2018-07-25T13:46:33.922Z,34.90
2018-07-25T13:49:02.429Z,34.40
2018-07-25T13:51:30.971Z,34.20
2018-07-25T13:53:59.499Z,34.40
2018-07-25T13:58:56.178Z,34.30
2018-07-25T14:01:24.685Z,34.60
2018-07-25T14:03:53.146Z,34.90
2018-07-25T14:06:21.729Z,35.10
2018-07-25T14:08:50.246Z,35.40
2018-07-25T14:11:18.906Z,35.70
2018-07-25T14:13:47.590Z,35.80
2018-07-25T14:16:16.134Z,35.60
2018-07-25T14:18:44.640Z,35.00
2018-07-25T14:21:13.238Z,34.80
2018-07-25T14:23:41.955Z,34.80
2018-07-25T14:26:10.644Z,35.00
2018-07-25T14:28:39.499Z,35.50
2018-07-25T14:31:08.013Z,35.70
2018-07-25T14:33:36.501Z,35.90
2018-07-25T14:36:05.601Z,35.50
2018-07-25T14:38:34.137Z,34.80
2018-07-25T14:41:02.745Z,34.30
2018-07-25T14:43:31.225Z,34.00
2018-07-25T14:46:00.147Z,33.90
2018-07-25T14:48:28.690Z,33.80
2018-07-25T14:50:57.415Z,33.40
2018-07-25T14:53:26.116Z,33.10
2018-07-25T14:55:54.648Z,33.10
2018-07-25T14:58:23.185Z,32.90
2018-07-25T15:00:51.736Z,32.60
2018-07-25T15:03:20.440Z,32.70
2018-07-25T15:05:49.133Z,32.80
2018-07-25T15:08:17.736Z,32.90
2018-07-25T15:10:46.276Z,32.90
2018-07-25T15:13:14.728Z,32.80
2018-07-25T15:15:43.352Z,32.70
2018-07-25T15:18:11.838Z,32.70
2018-07-25T15:20:40.340Z,32.50
2018-07-25T15:23:08.920Z,32.50
2018-07-25T15:25:37.436Z,32.40
2018-07-25T15:28:06.393Z,32.50
2018-07-25T15:30:34.930Z,32.40
2018-07-25T15:33:03.456Z,32.40
2018-07-25T15:35:32.110Z,32.50
2018-07-25T15:38:00.656Z,32.40
2018-07-25T15:40:29.242Z,32.30
2018-07-25T15:42:57.896Z,32.30
2018-07-25T15:45:26.409Z,32.30
2018-07-25T15:47:54.928Z,32.30
2018-07-25T15:50:23.410Z,32.30
2018-07-25T15:52:51.936Z,32.50
2018-07-25T15:55:20.385Z,32.50
2018-07-25T15:57:49.072Z,32.50
2018-07-25T16:00:17.740Z,32.50
2018-07-25T16:02:46.315Z,32.40
2018-07-25T16:07:42.973Z,32.30
2018-07-25T16:10:11.538Z,32.30
2018-07-25T16:12:40.093Z,32.30
2018-07-25T16:15:08.732Z,32.10
2018-07-25T16:17:37.352Z,32.00
2018-07-25T16:20:06.065Z,31.90
2018-07-25T16:22:34.691Z,31.90
2018-07-25T16:25:03.373Z,31.90
2018-07-25T16:27:32.069Z,31.80
2018-07-25T16:30:00.869Z,31.90
2018-07-25T16:32:29.374Z,31.80
2018-07-25T16:34:57.927Z,31.80
2018-07-25T16:37:26.398Z,31.70
2018-07-25T16:42:23.318Z,31.50
2018-07-25T16:44:51.867Z,31.30
2018-07-25T16:47:20.390Z,31.30
2018-07-25T16:49:48.993Z,31.20
2018-07-25T16:52:17.646Z,31.20
2018-07-25T16:54:46.173Z,31.20
2018-07-25T16:57:14.734Z,31.10
2018-07-25T16:59:43.303Z,31.00
2018-07-25T17:02:12.373Z,31.10
2018-07-25T17:04:41.297Z,31.00
2018-07-25T17:07:10.087Z,30.90
2018-07-25T17:09:38.624Z,30.80
2018-07-25T17:12:07.217Z,30.90
2018-07-25T17:14:35.714Z,30.90
2018-07-25T17:17:04.192Z,30.90
2018-07-25T17:19:32.760Z,30.70
2018-07-25T17:22:01.341Z,30.60
2018-07-25T17:24:29.902Z,30.60
2018-07-25T17:26:58.443Z,30.50
2018-07-25T17:29:26.966Z,30.60
2018-07-25T17:31:55.457Z,30.60
2018-07-25T17:34:24.077Z,30.60
2018-07-25T17:36:52.640Z,30.60
2018-07-25T17:39:21.134Z,30.60
2018-07-25T17:41:49.653Z,30.60
2018-07-25T17:44:18.157Z,30.70
2018-07-25T17:46:46.700Z,30.60
2018-07-25T17:49:15.185Z,30.50
2018-07-25T17:51:43.674Z,30.50
2018-07-25T17:54:12.232Z,30.50
2018-07-25T17:56:40.690Z,30.50
2018-07-25T17:59:09.243Z,30.40
2018-07-25T18:01:38.018Z,30.40
2018-07-25T18:04:06.508Z,30.40
2018-07-25T18:06:35.000Z,30.40
2018-07-25T18:09:03.869Z,30.40
2018-07-25T18:11:32.436Z,30.40
2018-07-25T18:14:06.149Z,30.30
2018-07-25T18:16:34.727Z,30.30
2018-07-25T18:19:03.252Z,30.30
2018-07-25T18:21:31.785Z,30.30
2018-07-25T18:24:00.301Z,30.30
2018-07-25T18:26:29.080Z,30.30
2018-07-25T18:28:57.691Z,30.20
2018-07-25T18:31:26.181Z,30.10
2018-07-25T18:33:54.848Z,30.10
2018-07-25T18:36:23.629Z,30.00
2018-07-25T18:38:52.298Z,30.00
2018-07-25T18:41:21.011Z,30.00
2018-07-25T18:43:49.490Z,30.00
2018-07-25T18:46:18.077Z,29.90
2018-07-25T18:48:46.678Z,29.90
2018-07-25T18:51:15.192Z,29.80
2018-07-25T18:53:43.731Z,29.70
2018-07-25T18:56:12.372Z,29.70
2018-07-25T18:58:40.906Z,29.70
2018-07-25T19:01:09.360Z,29.60
2018-07-25T19:03:37.824Z,29.50
2018-07-25T19:06:06.361Z,29.60
2018-07-25T19:08:34.903Z,29.50
2018-07-25T19:16:02.227Z,29.40
2018-07-25T19:18:30.778Z,29.30
2018-07-25T19:20:59.487Z,29.30
2018-07-25T19:23:27.955Z,29.30
2018-07-25T19:25:56.433Z,29.20
2018-07-25T19:28:25.199Z,29.20
2018-07-25T19:30:53.691Z,29.20
2018-07-25T19:33:22.195Z,29.20
2018-07-25T19:35:50.719Z,29.20
2018-07-25T19:38:19.463Z,29.10
2018-07-25T19:40:47.948Z,29.10
2018-07-25T19:43:16.629Z,29.00
2018-07-25T19:48:13.333Z,29.00
2018-07-25T19:50:41.841Z,28.90
2018-07-25T19:53:10.375Z,28.90
2018-07-25T19:55:38.951Z,28.80
2018-07-25T19:58:07.753Z,28.70
2018-07-25T20:00:36.340Z,28.70
2018-07-25T20:03:04.910Z,28.60
2018-07-25T20:05:33.742Z,28.60
2018-07-25T20:08:02.486Z,28.50
2018-07-25T20:10:30.965Z,28.40
2018-07-25T20:12:59.557Z,28.40
2018-07-25T20:15:33.129Z,28.40
2018-07-25T20:18:01.606Z,28.30
2018-07-25T20:20:30.086Z,28.30
2018-07-25T20:22:58.671Z,28.20
2018-07-25T20:25:27.167Z,28.10
2018-07-25T20:30:23.823Z,27.90
2018-07-25T20:32:52.823Z,27.80
2018-07-25T20:35:21.495Z,27.80
2018-07-25T20:37:50.066Z,27.70
2018-07-25T20:45:15.069Z,27.50
2018-07-25T20:47:43.952Z,27.50
2018-07-25T20:50:12.544Z,27.50
2018-07-25T20:52:41.081Z,27.40
2018-07-25T20:55:09.758Z,27.30
2018-07-25T20:57:38.277Z,27.30
2018-07-25T21:00:06.893Z,27.20
2018-07-25T21:02:35.301Z,27.20
2018-07-25T21:07:32.023Z,27.10
2018-07-25T21:10:00.460Z,27.00
2018-07-25T21:12:29.448Z,27.00
2018-07-25T21:14:58.046Z,27.00
2018-07-25T21:17:26.679Z,27.00
2018-07-25T21:19:55.132Z,26.90
2018-07-25T21:22:23.625Z,26.80
2018-07-25T21:24:52.195Z,26.80
2018-07-25T21:27:21.614Z,26.80
2018-07-25T21:29:50.084Z,26.70
2018-07-25T21:32:18.680Z,26.70
2018-07-25T21:34:47.115Z,26.70
2018-07-25T21:39:43.742Z,26.50
2018-07-25T21:42:12.231Z,26.50
2018-07-25T21:44:40.857Z,26.40
2018-07-25T21:49:37.429Z,26.20
2018-07-25T21:52:05.885Z,26.20
2018-07-25T21:54:34.350Z,26.10
2018-07-25T21:57:02.822Z,26.10
2018-07-25T21:59:31.293Z,26.00
2018-07-25T22:01:59.825Z,26.00
2018-07-25T22:04:28.281Z,26.00
2018-07-25T22:06:56.818Z,25.90
2018-07-25T22:09:25.290Z,25.90
2018-07-25T22:11:53.770Z,25.80
2018-07-25T22:14:22.572Z,25.70
2018-07-25T22:16:51.124Z,25.70
2018-07-25T22:19:19.716Z,25.60
2018-07-25T22:21:48.170Z,25.50
2018-07-25T22:24:16.626Z,25.50
2018-07-25T22:26:45.169Z,25.50
2018-07-25T22:29:13.617Z,25.50
2018-07-25T22:31:42.155Z,25.50
2018-07-25T22:34:10.601Z,25.50
2018-07-25T22:36:39.194Z,25.50
2018-07-25T22:39:09.138Z,25.50
2018-07-25T22:41:37.795Z,25.40
2018-07-25T22:44:06.586Z,25.40
2018-07-25T22:46:36.249Z,25.40
2018-07-25T22:49:04.689Z,25.40
2018-07-25T22:51:33.264Z,25.30
2018-07-25T22:54:01.709Z,25.30
2018-07-25T22:56:30.163Z,25.30
2018-07-25T22:58:58.611Z,25.30
2018-07-25T23:01:27.276Z,25.20
2018-07-25T23:06:24.165Z,25.10
2018-07-25T23:08:52.859Z,25.10
2018-07-25T23:11:21.329Z,25.00
2018-07-25T23:13:49.769Z,25.00
2018-07-25T23:16:18.265Z,25.00
2018-07-25T23:18:47.381Z,24.90
2018-07-25T23:23:44.055Z,24.90
2018-07-25T23:26:12.627Z,24.80
2018-07-25T23:31:09.533Z,24.80
2018-07-25T23:33:37.958Z,24.80
2018-07-25T23:36:06.460Z,24.70
2018-07-25T23:38:34.923Z,24.60
2018-07-25T23:41:03.368Z,24.60
2018-07-25T23:43:31.846Z,24.50
2018-07-25T23:46:00.369Z,24.50
2018-07-25T23:48:28.836Z,24.50
2018-07-25T23:50:57.368Z,24.40
2018-07-25T23:53:25.830Z,24.40
2018-07-25T23:55:54.312Z,24.40
2018-07-25T23:58:22.997Z,24.40
